sensor_id;sensor_type;location;lat;lon;timestamp;P1;durP1;ratioP1;P2;durP2;ratioP2
71490;SDS011;59307;50.060;9.150;2023-03-01T00:01:45;18.50;;;8.40;;
71490;SDS011;59307;50.060;9.150;2023-03-01T00:04:10;18.90;;;8.27;;
71490;SDS011;59307;50.060;9.150;2023-03-01T00:06:35;17.50;;;8.37;;
71490;SDS011;59307;50.060;9.150;2023-03-01T00:09:00;18.50;;;7.93;;
71490;SDS011;59307;50.060;9.150;2023-03-01T00:11:27;19.33;;;8.37;;
71490;SDS011;59307;50.060;9.150;2023-03-01T00:13:53;14.23;;;7.43;;
71490;SDS011;59307;50.060;9.150;2023-03-01T00:16:21;21.25;;;9.10;;
71490;SDS011;59307;50.060;9.150;2023-03-01T00:18:46;21.80;;;7.73;;
71490;SDS011;59307;50.060;9.150;2023-03-01T00:21:11;20.73;;;8.90;;
71490;SDS011;59307;50.060;9.150;2023-03-01T00:23:37;18.02;;;9.30;;
71490;SDS011;59307;50.060;9.150;2023-03-01T00:26:05;18.43;;;8.27;;
71490;SDS011;59307;50.060;9.150;2023-03-01T00:28:31;17.58;;;8.23;;
71490;SDS011;59307;50.060;9.150;2023-03-01T00:30:56;17.77;;;8.40;;
71490;SDS011;59307;50.060;9.150;2023-03-01T00:33:27;20.23;;;8.85;;
71490;SDS011;59307;50.060;9.150;2023-03-01T00:35:52;22.80;;;9.03;;
71490;SDS011;59307;50.060;9.150;2023-03-01T00:38:17;18.87;;;8.80;;
71490;SDS011;59307;50.060;9.150;2023-03-01T00:40:42;18.23;;;8.73;;
71490;SDS011;59307;50.060;9.150;2023-03-01T00:43:07;20.40;;;8.60;;
71490;SDS011;59307;50.060;9.150;2023-03-01T00:45:33;18.97;;;8.73;;
71490;SDS011;59307;50.060;9.150;2023-03-01T00:47:58;17.97;;;8.33;;
71490;SDS011;59307;50.060;9.150;2023-03-01T00:50:23;15.43;;;7.33;;
71490;SDS011;59307;50.060;9.150;2023-03-01T00:52:51;17.30;;;8.23;;
71490;SDS011;59307;50.060;9.150;2023-03-01T00:55:17;19.33;;;8.98;;
71490;SDS011;59307;50.060;9.150;2023-03-01T00:57:42;21.20;;;8.23;;
71490;SDS011;59307;50.060;9.150;2023-03-01T01:00:07;16.93;;;7.67;;
71490;SDS011;59307;50.060;9.150;2023-03-01T01:02:36;17.48;;;8.25;;
71490;SDS011;59307;50.060;9.150;2023-03-01T01:05:02;20.47;;;8.50;;
71490;SDS011;59307;50.060;9.150;2023-03-01T01:07:27;17.60;;;8.17;;
71490;SDS011;59307;50.060;9.150;2023-03-01T01:09:52;20.97;;;9.17;;
71490;SDS011;59307;50.060;9.150;2023-03-01T01:12:17;21.87;;;10.10;;
71490;SDS011;59307;50.060;9.150;2023-03-01T01:14:42;22.97;;;10.30;;
71490;SDS011;59307;50.060;9.150;2023-03-01T01:17:08;20.97;;;9.80;;
71490;SDS011;59307;50.060;9.150;2023-03-01T01:19:33;20.00;;;8.57;;
71490;SDS011;59307;50.060;9.150;2023-03-01T01:21:58;21.80;;;9.40;;
71490;SDS011;59307;50.060;9.150;2023-03-01T01:24:23;18.63;;;9.50;;
71490;SDS011;59307;50.060;9.150;2023-03-01T01:26:48;19.70;;;8.63;;
71490;SDS011;59307;50.060;9.150;2023-03-01T01:29:13;21.13;;;9.50;;
71490;SDS011;59307;50.060;9.150;2023-03-01T01:31:40;19.17;;;8.80;;
71490;SDS011;59307;50.060;9.150;2023-03-01T01:34:06;18.55;;;8.95;;
71490;SDS011;59307;50.060;9.150;2023-03-01T01:36:32;21.08;;;8.93;;
71490;SDS011;59307;50.060;9.150;2023-03-01T01:38:57;19.90;;;9.33;;
71490;SDS011;59307;50.060;9.150;2023-03-01T01:41:24;18.97;;;8.73;;
71490;SDS011;59307;50.060;9.150;2023-03-01T01:44:09;20.48;;;9.40;;
71490;SDS011;59307;50.060;9.150;2023-03-01T01:46:35;19.88;;;8.88;;
71490;SDS011;59307;50.060;9.150;2023-03-01T01:49:03;21.83;;;9.38;;
71490;SDS011;59307;50.060;9.150;2023-03-01T01:51:31;22.13;;;8.83;;
71490;SDS011;59307;50.060;9.150;2023-03-01T01:54:03;20.98;;;9.35;;
71490;SDS011;59307;50.060;9.150;2023-03-01T01:56:30;18.58;;;8.73;;
71490;SDS011;59307;50.060;9.150;2023-03-01T01:58:55;21.03;;;8.53;;
71490;SDS011;59307;50.060;9.150;2023-03-01T02:01:21;19.17;;;8.33;;
71490;SDS011;59307;50.060;9.150;2023-03-01T02:03:46;23.97;;;9.70;;
71490;SDS011;59307;50.060;9.150;2023-03-01T02:06:15;16.98;;;8.35;;
71490;SDS011;59307;50.060;9.150;2023-03-01T02:08:43;20.77;;;8.80;;
71490;SDS011;59307;50.060;9.150;2023-03-01T02:11:09;17.60;;;7.97;;
71490;SDS011;59307;50.060;9.150;2023-03-01T02:13:35;18.10;;;7.57;;
71490;SDS011;59307;50.060;9.150;2023-03-01T02:16:04;22.83;;;9.48;;
71490;SDS011;59307;50.060;9.150;2023-03-01T02:18:30;18.13;;;8.18;;
71490;SDS011;59307;50.060;9.150;2023-03-01T02:23:39;21.30;;;9.82;;
71490;SDS011;59307;50.060;9.150;2023-03-01T02:26:16;18.03;;;8.90;;
71490;SDS011;59307;50.060;9.150;2023-03-01T02:28:42;21.50;;;9.00;;
71490;SDS011;59307;50.060;9.150;2023-03-01T02:31:09;19.58;;;8.55;;
71490;SDS011;59307;50.060;9.150;2023-03-01T02:33:53;22.13;;;9.00;;
71490;SDS011;59307;50.060;9.150;2023-03-01T02:36:22;19.23;;;9.10;;
71490;SDS011;59307;50.060;9.150;2023-03-01T02:38:49;16.48;;;8.45;;
71490;SDS011;59307;50.060;9.150;2023-03-01T02:41:16;23.20;;;9.27;;
71490;SDS011;59307;50.060;9.150;2023-03-01T02:43:42;20.50;;;9.35;;
71490;SDS011;59307;50.060;9.150;2023-03-01T02:46:12;20.20;;;9.20;;
71490;SDS011;59307;50.060;9.150;2023-03-01T02:48:48;20.25;;;9.32;;
71490;SDS011;59307;50.060;9.150;2023-03-01T02:53:43;19.73;;;8.90;;
71490;SDS011;59307;50.060;9.150;2023-03-01T02:56:10;21.35;;;9.80;;
71490;SDS011;59307;50.060;9.150;2023-03-01T02:58:37;19.95;;;8.95;;
71490;SDS011;59307;50.060;9.150;2023-03-01T03:01:10;19.33;;;9.45;;
71490;SDS011;59307;50.060;9.150;2023-03-01T03:03:35;19.13;;;8.73;;
71490;SDS011;59307;50.060;9.150;2023-03-01T03:06:00;20.07;;;9.57;;
71490;SDS011;59307;50.060;9.150;2023-03-01T03:08:25;15.47;;;7.57;;
71490;SDS011;59307;50.060;9.150;2023-03-01T03:10:50;19.57;;;9.13;;
71490;SDS011;59307;50.060;9.150;2023-03-01T03:13:15;18.37;;;8.93;;
71490;SDS011;59307;50.060;9.150;2023-03-01T03:15:41;22.37;;;9.80;;
71490;SDS011;59307;50.060;9.150;2023-03-01T03:18:08;23.23;;;10.50;;
71490;SDS011;59307;50.060;9.150;2023-03-01T03:20:33;20.70;;;9.50;;
71490;SDS011;59307;50.060;9.150;2023-03-01T03:22:59;21.00;;;9.32;;
71490;SDS011;59307;50.060;9.150;2023-03-01T03:25:25;20.00;;;9.00;;
71490;SDS011;59307;50.060;9.150;2023-03-01T03:27:50;22.60;;;9.07;;
71490;SDS011;59307;50.060;9.150;2023-03-01T03:30:21;18.73;;;8.75;;
71490;SDS011;59307;50.060;9.150;2023-03-01T03:32:47;19.13;;;8.93;;
71490;SDS011;59307;50.060;9.150;2023-03-01T03:35:17;20.58;;;8.63;;
71490;SDS011;59307;50.060;9.150;2023-03-01T03:37:42;20.67;;;8.90;;
71490;SDS011;59307;50.060;9.150;2023-03-01T03:40:26;19.57;;;9.30;;
71490;SDS011;59307;50.060;9.150;2023-03-01T03:42:52;23.58;;;9.35;;
71490;SDS011;59307;50.060;9.150;2023-03-01T03:45:17;22.90;;;8.70;;
71490;SDS011;59307;50.060;9.150;2023-03-01T03:47:43;19.77;;;9.40;;
71490;SDS011;59307;50.060;9.150;2023-03-01T03:50:09;18.85;;;8.77;;
71490;SDS011;59307;50.060;9.150;2023-03-01T03:52:34;19.77;;;8.53;;
71490;SDS011;59307;50.060;9.150;2023-03-01T03:54:59;19.63;;;9.60;;
71490;SDS011;59307;50.060;9.150;2023-03-01T03:57:25;22.50;;;9.90;;
71490;SDS011;59307;50.060;9.150;2023-03-01T03:59:50;22.07;;;9.13;;
71490;SDS011;59307;50.060;9.150;2023-03-01T04:02:15;18.80;;;8.57;;
71490;SDS011;59307;50.060;9.150;2023-03-01T04:04:46;20.67;;;9.15;;
71490;SDS011;59307;50.060;9.150;2023-03-01T04:07:14;22.17;;;9.55;;
71490;SDS011;59307;50.060;9.150;2023-03-01T04:09:39;20.60;;;9.33;;
71490;SDS011;59307;50.060;9.150;2023-03-01T04:12:04;18.83;;;8.43;;
71490;SDS011;59307;50.060;9.150;2023-03-01T04:14:30;21.37;;;9.27;;
71490;SDS011;59307;50.060;9.150;2023-03-01T04:16:55;20.53;;;9.30;;
71490;SDS011;59307;50.060;9.150;2023-03-01T04:19:20;18.93;;;8.90;;
71490;SDS011;59307;50.060;9.150;2023-03-01T04:21:45;20.87;;;9.60;;
71490;SDS011;59307;50.060;9.150;2023-03-01T04:24:10;19.33;;;8.83;;
71490;SDS011;59307;50.060;9.150;2023-03-01T04:26:36;20.10;;;8.97;;
71490;SDS011;59307;50.060;9.150;2023-03-01T04:29:01;19.53;;;9.33;;
71490;SDS011;59307;50.060;9.150;2023-03-01T04:31:26;24.20;;;9.60;;
71490;SDS011;59307;50.060;9.150;2023-03-01T04:33:52;21.75;;;9.50;;
71490;SDS011;59307;50.060;9.150;2023-03-01T04:36:19;22.50;;;9.13;;
71490;SDS011;59307;50.060;9.150;2023-03-01T04:38:45;21.00;;;8.93;;
71490;SDS011;59307;50.060;9.150;2023-03-01T04:41:13;19.90;;;9.52;;
71490;SDS011;59307;50.060;9.150;2023-03-01T04:43:38;22.83;;;10.10;;
71490;SDS011;59307;50.060;9.150;2023-03-01T04:46:05;21.63;;;9.77;;
71490;SDS011;59307;50.060;9.150;2023-03-01T04:48:32;23.10;;;10.15;;
71490;SDS011;59307;50.060;9.150;2023-03-01T04:51:00;19.95;;;9.32;;
71490;SDS011;59307;50.060;9.150;2023-03-01T04:53:26;22.02;;;9.48;;
71490;SDS011;59307;50.060;9.150;2023-03-01T04:55:51;21.00;;;9.67;;
71490;SDS011;59307;50.060;9.150;2023-03-01T04:58:16;22.57;;;9.60;;
71490;SDS011;59307;50.060;9.150;2023-03-01T05:00:41;23.07;;;10.13;;
71490;SDS011;59307;50.060;9.150;2023-03-01T05:03:07;20.93;;;9.57;;
71490;SDS011;59307;50.060;9.150;2023-03-01T05:05:33;23.42;;;10.27;;
71490;SDS011;59307;50.060;9.150;2023-03-01T05:08:00;20.65;;;9.45;;
71490;SDS011;59307;50.060;9.150;2023-03-01T05:10:26;23.10;;;10.13;;
71490;SDS011;59307;50.060;9.150;2023-03-01T05:12:51;20.42;;;9.38;;
71490;SDS011;59307;50.060;9.150;2023-03-01T05:15:19;22.25;;;10.35;;
71490;SDS011;59307;50.060;9.150;2023-03-01T05:17:46;21.73;;;10.70;;
71490;SDS011;59307;50.060;9.150;2023-03-01T05:20:11;22.87;;;10.07;;
71490;SDS011;59307;50.060;9.150;2023-03-01T05:22:37;22.93;;;9.97;;
71490;SDS011;59307;50.060;9.150;2023-03-01T05:25:03;21.00;;;10.97;;
71490;SDS011;59307;50.060;9.150;2023-03-01T05:27:28;21.00;;;9.80;;
71490;SDS011;59307;50.060;9.150;2023-03-01T05:29:54;22.33;;;10.18;;
71490;SDS011;59307;50.060;9.150;2023-03-01T05:32:19;23.73;;;10.67;;
71490;SDS011;59307;50.060;9.150;2023-03-01T05:34:44;22.90;;;9.90;;
71490;SDS011;59307;50.060;9.150;2023-03-01T05:37:11;23.43;;;10.13;;
71490;SDS011;59307;50.060;9.150;2023-03-01T05:39:36;20.52;;;9.52;;
71490;SDS011;59307;50.060;9.150;2023-03-01T05:42:01;20.33;;;8.83;;
71490;SDS011;59307;50.060;9.150;2023-03-01T05:44:27;22.00;;;9.57;;
71490;SDS011;59307;50.060;9.150;2023-03-01T05:46:53;19.17;;;9.10;;
71490;SDS011;59307;50.060;9.150;2023-03-01T05:49:19;21.05;;;9.90;;
71490;SDS011;59307;50.060;9.150;2023-03-01T05:51:47;20.13;;;9.73;;
71490;SDS011;59307;50.060;9.150;2023-03-01T05:54:13;21.38;;;9.52;;
71490;SDS011;59307;50.060;9.150;2023-03-01T05:56:39;18.97;;;9.37;;
71490;SDS011;59307;50.060;9.150;2023-03-01T05:59:04;20.80;;;9.87;;
71490;SDS011;59307;50.060;9.150;2023-03-01T06:01:30;22.90;;;10.13;;
71490;SDS011;59307;50.060;9.150;2023-03-01T06:03:55;21.30;;;10.07;;
71490;SDS011;59307;50.060;9.150;2023-03-01T06:06:21;21.70;;;10.05;;
71490;SDS011;59307;50.060;9.150;2023-03-01T06:08:46;22.47;;;9.90;;
71490;SDS011;59307;50.060;9.150;2023-03-01T06:11:12;22.53;;;9.87;;
71490;SDS011;59307;50.060;9.150;2023-03-01T06:13:37;19.60;;;9.77;;
71490;SDS011;59307;50.060;9.150;2023-03-01T06:16:05;20.23;;;9.07;;
71490;SDS011;59307;50.060;9.150;2023-03-01T06:18:31;23.13;;;10.85;;
71490;SDS011;59307;50.060;9.150;2023-03-01T06:20:56;29.87;;;13.47;;
71490;SDS011;59307;50.060;9.150;2023-03-01T06:23:22;24.80;;;10.47;;
71490;SDS011;59307;50.060;9.150;2023-03-01T06:25:47;22.70;;;10.40;;
71490;SDS011;59307;50.060;9.150;2023-03-01T06:28:13;21.83;;;9.60;;
71490;SDS011;59307;50.060;9.150;2023-03-01T06:30:38;23.20;;;10.37;;
71490;SDS011;59307;50.060;9.150;2023-03-01T06:33:03;24.23;;;9.97;;
71490;SDS011;59307;50.060;9.150;2023-03-01T06:35:29;20.10;;;9.23;;
71490;SDS011;59307;50.060;9.150;2023-03-01T06:37:55;21.50;;;10.43;;
71490;SDS011;59307;50.060;9.150;2023-03-01T06:40:21;24.45;;;10.88;;
71490;SDS011;59307;50.060;9.150;2023-03-01T06:42:50;21.23;;;10.60;;
71490;SDS011;59307;50.060;9.150;2023-03-01T06:45:16;20.55;;;10.45;;
71490;SDS011;59307;50.060;9.150;2023-03-01T06:47:41;25.17;;;10.80;;
71490;SDS011;59307;50.060;9.150;2023-03-01T06:50:06;21.45;;;9.90;;
71490;SDS011;59307;50.060;9.150;2023-03-01T06:52:32;25.63;;;10.63;;
71490;SDS011;59307;50.060;9.150;2023-03-01T06:54:57;21.63;;;10.10;;
71490;SDS011;59307;50.060;9.150;2023-03-01T06:57:22;16.47;;;7.67;;
71490;SDS011;59307;50.060;9.150;2023-03-01T06:59:47;19.30;;;8.47;;
71490;SDS011;59307;50.060;9.150;2023-03-01T07:02:13;20.57;;;9.63;;
71490;SDS011;59307;50.060;9.150;2023-03-01T07:04:39;22.23;;;9.68;;
71490;SDS011;59307;50.060;9.150;2023-03-01T07:07:04;21.03;;;10.20;;
71490;SDS011;59307;50.060;9.150;2023-03-01T07:09:29;22.10;;;9.53;;
71490;SDS011;59307;50.060;9.150;2023-03-01T07:11:55;19.63;;;9.60;;
71490;SDS011;59307;50.060;9.150;2023-03-01T07:14:21;19.83;;;9.82;;
71490;SDS011;59307;50.060;9.150;2023-03-01T07:16:46;23.90;;;10.03;;
71490;SDS011;59307;50.060;9.150;2023-03-01T07:19:11;21.53;;;9.20;;
71490;SDS011;59307;50.060;9.150;2023-03-01T07:21:36;22.73;;;9.90;;
71490;SDS011;59307;50.060;9.150;2023-03-01T07:24:04;19.85;;;9.75;;
71490;SDS011;59307;50.060;9.150;2023-03-01T07:26:29;21.77;;;9.70;;
71490;SDS011;59307;50.060;9.150;2023-03-01T07:28:55;21.93;;;10.63;;
71490;SDS011;59307;50.060;9.150;2023-03-01T07:31:20;18.47;;;9.20;;
71490;SDS011;59307;50.060;9.150;2023-03-01T07:33:45;23.20;;;10.27;;
71490;SDS011;59307;50.060;9.150;2023-03-01T07:36:10;20.97;;;10.10;;
71490;SDS011;59307;50.060;9.150;2023-03-01T07:38:35;19.10;;;10.40;;
71490;SDS011;59307;50.060;9.150;2023-03-01T07:41:01;22.03;;;11.53;;
71490;SDS011;59307;50.060;9.150;2023-03-01T07:43:28;21.65;;;10.48;;
71490;SDS011;59307;50.060;9.150;2023-03-01T07:45:53;20.98;;;9.90;;
71490;SDS011;59307;50.060;9.150;2023-03-01T07:48:18;21.23;;;10.23;;
71490;SDS011;59307;50.060;9.150;2023-03-01T07:50:43;24.13;;;10.27;;
71490;SDS011;59307;50.060;9.150;2023-03-01T07:53:09;19.10;;;9.20;;
71490;SDS011;59307;50.060;9.150;2023-03-01T07:55:34;19.73;;;9.67;;
71490;SDS011;59307;50.060;9.150;2023-03-01T07:57:59;18.97;;;9.70;;
71490;SDS011;59307;50.060;9.150;2023-03-01T08:00:24;18.07;;;9.27;;
71490;SDS011;59307;50.060;9.150;2023-03-01T08:02:49;18.87;;;9.83;;
71490;SDS011;59307;50.060;9.150;2023-03-01T08:05:15;23.30;;;10.47;;
71490;SDS011;59307;50.060;9.150;2023-03-01T08:07:40;22.73;;;10.32;;
71490;SDS011;59307;50.060;9.150;2023-03-01T08:10:05;21.87;;;10.50;;
71490;SDS011;59307;50.060;9.150;2023-03-01T08:12:31;20.53;;;9.77;;
71490;SDS011;59307;50.060;9.150;2023-03-01T08:14:56;25.37;;;11.50;;
71490;SDS011;59307;50.060;9.150;2023-03-01T08:17:21;19.90;;;9.97;;
71490;SDS011;59307;50.060;9.150;2023-03-01T08:19:47;21.37;;;10.20;;
71490;SDS011;59307;50.060;9.150;2023-03-01T08:22:12;19.07;;;9.40;;
71490;SDS011;59307;50.060;9.150;2023-03-01T08:24:37;18.40;;;9.80;;
71490;SDS011;59307;50.060;9.150;2023-03-01T08:27:02;21.40;;;9.83;;
71490;SDS011;59307;50.060;9.150;2023-03-01T08:29:28;18.23;;;9.70;;
71490;SDS011;59307;50.060;9.150;2023-03-01T08:31:55;20.43;;;10.13;;
71490;SDS011;59307;50.060;9.150;2023-03-01T08:34:20;18.27;;;9.53;;
71490;SDS011;59307;50.060;9.150;2023-03-01T08:36:45;18.43;;;9.50;;
71490;SDS011;59307;50.060;9.150;2023-03-01T08:39:12;18.27;;;9.10;;
71490;SDS011;59307;50.060;9.150;2023-03-01T08:41:37;21.15;;;9.65;;
71490;SDS011;59307;50.060;9.150;2023-03-01T08:44:03;23.23;;;10.20;;
71490;SDS011;59307;50.060;9.150;2023-03-01T08:46:32;21.17;;;10.23;;
71490;SDS011;59307;50.060;9.150;2023-03-01T08:48:57;20.80;;;10.25;;
71490;SDS011;59307;50.060;9.150;2023-03-01T08:51:23;18.63;;;9.07;;
71490;SDS011;59307;50.060;9.150;2023-03-01T08:53:49;18.40;;;8.73;;
71490;SDS011;59307;50.060;9.150;2023-03-01T08:56:14;20.23;;;10.10;;
71490;SDS011;59307;50.060;9.150;2023-03-01T08:58:39;18.57;;;9.90;;
71490;SDS011;59307;50.060;9.150;2023-03-01T09:01:12;18.47;;;9.60;;
71490;SDS011;59307;50.060;9.150;2023-03-01T09:03:37;21.08;;;9.10;;
71490;SDS011;59307;50.060;9.150;2023-03-01T09:06:03;17.40;;;8.70;;
71490;SDS011;59307;50.060;9.150;2023-03-01T09:08:29;18.55;;;9.25;;
71490;SDS011;59307;50.060;9.150;2023-03-01T09:10:54;17.73;;;8.13;;
71490;SDS011;59307;50.060;9.150;2023-03-01T09:13:21;20.52;;;9.15;;
71490;SDS011;59307;50.060;9.150;2023-03-01T09:15:48;19.63;;;8.95;;
71490;SDS011;59307;50.060;9.150;2023-03-01T09:18:13;18.50;;;9.53;;
71490;SDS011;59307;50.060;9.150;2023-03-01T09:20:39;18.30;;;9.60;;
71490;SDS011;59307;50.060;9.150;2023-03-01T09:23:04;18.13;;;9.73;;
71490;SDS011;59307;50.060;9.150;2023-03-01T09:25:29;22.93;;;9.03;;
71490;SDS011;59307;50.060;9.150;2023-03-01T09:27:54;17.23;;;8.67;;
71490;SDS011;59307;50.060;9.150;2023-03-01T09:30:20;24.33;;;9.50;;
71490;SDS011;59307;50.060;9.150;2023-03-01T09:32:45;17.17;;;8.95;;
71490;SDS011;59307;50.060;9.150;2023-03-01T09:35:11;20.13;;;9.00;;
71490;SDS011;59307;50.060;9.150;2023-03-01T09:37:37;20.73;;;9.73;;
71490;SDS011;59307;50.060;9.150;2023-03-01T09:40:03;19.35;;;9.45;;
71490;SDS011;59307;50.060;9.150;2023-03-01T09:42:30;17.13;;;8.90;;
71490;SDS011;59307;50.060;9.150;2023-03-01T09:45:00;21.05;;;9.57;;
71490;SDS011;59307;50.060;9.150;2023-03-01T09:47:28;17.75;;;9.43;;
71490;SDS011;59307;50.060;9.150;2023-03-01T09:49:58;16.67;;;8.80;;
71490;SDS011;59307;50.060;9.150;2023-03-01T09:54:59;17.65;;;8.30;;
71490;SDS011;59307;50.060;9.150;2023-03-01T09:57:46;17.20;;;9.23;;
71490;SDS011;59307;50.060;9.150;2023-03-01T10:00:17;15.80;;;8.10;;
71490;SDS011;59307;50.060;9.150;2023-03-01T10:02:45;17.00;;;8.35;;
71490;SDS011;59307;50.060;9.150;2023-03-01T10:10:04;17.77;;;8.83;;
71490;SDS011;59307;50.060;9.150;2023-03-01T10:12:37;18.23;;;8.63;;
71490;SDS011;59307;50.060;9.150;2023-03-01T10:15:25;15.75;;;8.80;;
71490;SDS011;59307;50.060;9.150;2023-03-01T10:17:56;19.05;;;9.40;;
71490;SDS011;59307;50.060;9.150;2023-03-01T10:20:23;18.70;;;9.65;;
71490;SDS011;59307;50.060;9.150;2023-03-01T10:22:49;17.17;;;8.40;;
71490;SDS011;59307;50.060;9.150;2023-03-01T10:27:54;16.10;;;8.23;;
71490;SDS011;59307;50.060;9.150;2023-03-01T10:30:40;15.60;;;7.85;;
71490;SDS011;59307;50.060;9.150;2023-03-01T10:33:14;21.60;;;10.13;;
71490;SDS011;59307;50.060;9.150;2023-03-01T10:35:40;25.63;;;13.05;;
71490;SDS011;59307;50.060;9.150;2023-03-01T10:38:10;17.57;;;8.67;;
71490;SDS011;59307;50.060;9.150;2023-03-01T10:40:36;14.23;;;7.43;;
71490;SDS011;59307;50.060;9.150;2023-03-01T10:43:14;14.57;;;7.73;;
71490;SDS011;59307;50.060;9.150;2023-03-01T10:45:39;18.03;;;8.90;;
71490;SDS011;59307;50.060;9.150;2023-03-01T10:50:33;14.13;;;7.00;;
71490;SDS011;59307;50.060;9.150;2023-03-01T10:52:59;14.32;;;7.60;;
71490;SDS011;59307;50.060;9.150;2023-03-01T10:57:50;15.60;;;8.40;;
71490;SDS011;59307;50.060;9.150;2023-03-01T11:00:30;14.33;;;7.47;;
71490;SDS011;59307;50.060;9.150;2023-03-01T11:05:24;12.27;;;6.88;;
71490;SDS011;59307;50.060;9.150;2023-03-01T11:07:53;14.50;;;7.32;;
71490;SDS011;59307;50.060;9.150;2023-03-01T11:10:23;13.98;;;7.55;;
71490;SDS011;59307;50.060;9.150;2023-03-01T11:12:50;15.93;;;7.77;;
71490;SDS011;59307;50.060;9.150;2023-03-01T11:15:22;17.85;;;8.15;;
71490;SDS011;59307;50.060;9.150;2023-03-01T11:17:49;14.65;;;8.20;;
71490;SDS011;59307;50.060;9.150;2023-03-01T11:20:20;17.55;;;8.32;;
71490;SDS011;59307;50.060;9.150;2023-03-01T11:23:22;12.45;;;6.15;;
71490;SDS011;59307;50.060;9.150;2023-03-01T11:25:41;14.63;;;7.57;;
71490;SDS011;59307;50.060;9.150;2023-03-01T11:28:07;13.30;;;6.88;;
71490;SDS011;59307;50.060;9.150;2023-03-01T11:33:18;14.55;;;6.75;;
71490;SDS011;59307;50.060;9.150;2023-03-01T11:35:47;11.40;;;6.47;;
71490;SDS011;59307;50.060;9.150;2023-03-01T11:38:24;12.47;;;6.53;;
71490;SDS011;59307;50.060;9.150;2023-03-01T11:46:29;11.05;;;5.45;;
71490;SDS011;59307;50.060;9.150;2023-03-01T11:49:09;11.80;;;6.32;;
71490;SDS011;59307;50.060;9.150;2023-03-01T11:51:42;11.47;;;5.67;;
71490;SDS011;59307;50.060;9.150;2023-03-01T11:56:37;11.50;;;6.00;;
71490;SDS011;59307;50.060;9.150;2023-03-01T11:59:28;12.05;;;5.60;;
71490;SDS011;59307;50.060;9.150;2023-03-01T12:14:17;10.47;;;5.50;;
71490;SDS011;59307;50.060;9.150;2023-03-01T12:19:33;10.90;;;5.78;;
71490;SDS011;59307;50.060;9.150;2023-03-01T12:22:06;10.40;;;5.20;;
71490;SDS011;59307;50.060;9.150;2023-03-01T12:27:12;11.23;;;5.60;;
71490;SDS011;59307;50.060;9.150;2023-03-01T12:32:30;9.57;;;4.80;;
71490;SDS011;59307;50.060;9.150;2023-03-01T12:48:09;10.95;;;5.20;;
71490;SDS011;59307;50.060;9.150;2023-03-01T12:53:01;10.00;;;4.97;;
71490;SDS011;59307;50.060;9.150;2023-03-01T12:57:58;10.40;;;5.05;;
71490;SDS011;59307;50.060;9.150;2023-03-01T13:03:02;9.53;;;4.73;;
71490;SDS011;59307;50.060;9.150;2023-03-01T13:13:08;9.60;;;5.33;;
71490;SDS011;59307;50.060;9.150;2023-03-01T13:15:36;10.73;;;5.00;;
71490;SDS011;59307;50.060;9.150;2023-03-01T13:20:47;11.27;;;5.40;;
71490;SDS011;59307;50.060;9.150;2023-03-01T13:30:56;10.23;;;5.18;;
71490;SDS011;59307;50.060;9.150;2023-03-01T13:35:53;11.43;;;5.60;;
71490;SDS011;59307;50.060;9.150;2023-03-01T13:41:02;10.88;;;5.97;;
71490;SDS011;59307;50.060;9.150;2023-03-01T13:43:40;11.80;;;6.40;;
71490;SDS011;59307;50.060;9.150;2023-03-01T13:46:25;11.63;;;6.70;;
71490;SDS011;59307;50.060;9.150;2023-03-01T13:48:51;14.68;;;6.28;;
71490;SDS011;59307;50.060;9.150;2023-03-01T13:51:19;15.68;;;7.35;;
71490;SDS011;59307;50.060;9.150;2023-03-01T13:53:46;11.90;;;6.90;;
71490;SDS011;59307;50.060;9.150;2023-03-01T13:56:12;10.15;;;6.35;;
71490;SDS011;59307;50.060;9.150;2023-03-01T14:03:47;13.80;;;7.27;;
71490;SDS011;59307;50.060;9.150;2023-03-01T14:06:14;12.93;;;7.20;;
71490;SDS011;59307;50.060;9.150;2023-03-01T14:08:40;13.65;;;7.20;;
71490;SDS011;59307;50.060;9.150;2023-03-01T14:21:23;10.33;;;5.60;;
71490;SDS011;59307;50.060;9.150;2023-03-01T14:23:50;13.70;;;7.03;;
71490;SDS011;59307;50.060;9.150;2023-03-01T14:26:20;12.10;;;7.27;;
71490;SDS011;59307;50.060;9.150;2023-03-01T14:28:45;12.63;;;7.47;;
71490;SDS011;59307;50.060;9.150;2023-03-01T14:33:56;13.00;;;7.95;;
71490;SDS011;59307;50.060;9.150;2023-03-01T14:36:25;14.43;;;7.97;;
71490;SDS011;59307;50.060;9.150;2023-03-01T14:38:51;11.63;;;7.65;;
71490;SDS011;59307;50.060;9.150;2023-03-01T14:43:43;11.23;;;6.53;;
71490;SDS011;59307;50.060;9.150;2023-03-01T14:48:50;13.23;;;7.90;;
71490;SDS011;59307;50.060;9.150;2023-03-01T14:51:16;13.13;;;7.85;;
71490;SDS011;59307;50.060;9.150;2023-03-01T14:53:41;17.23;;;7.33;;
71490;SDS011;59307;50.060;9.150;2023-03-01T14:56:12;15.27;;;7.20;;
71490;SDS011;59307;50.060;9.150;2023-03-01T14:58:38;15.40;;;7.32;;
71490;SDS011;59307;50.060;9.150;2023-03-01T15:01:03;14.20;;;7.57;;
71490;SDS011;59307;50.060;9.150;2023-03-01T15:05:54;13.23;;;7.40;;
71490;SDS011;59307;50.060;9.150;2023-03-01T15:08:21;12.13;;;7.20;;
71490;SDS011;59307;50.060;9.150;2023-03-01T15:11:04;13.63;;;7.18;;
71490;SDS011;59307;50.060;9.150;2023-03-01T15:13:31;14.48;;;8.00;;
71490;SDS011;59307;50.060;9.150;2023-03-01T15:18:27;11.13;;;6.57;;
71490;SDS011;59307;50.060;9.150;2023-03-01T15:20:53;13.80;;;7.55;;
71490;SDS011;59307;50.060;9.150;2023-03-01T15:23:23;14.53;;;8.70;;
71490;SDS011;59307;50.060;9.150;2023-03-01T15:25:49;21.58;;;8.27;;
71490;SDS011;59307;50.060;9.150;2023-03-01T15:28:21;12.75;;;7.38;;
71490;SDS011;59307;50.060;9.150;2023-03-01T15:30:51;14.23;;;7.87;;
71490;SDS011;59307;50.060;9.150;2023-03-01T15:33:19;13.90;;;7.13;;
71490;SDS011;59307;50.060;9.150;2023-03-01T15:35:45;16.20;;;9.25;;
71490;SDS011;59307;50.060;9.150;2023-03-01T15:40:53;15.10;;;8.18;;
71490;SDS011;59307;50.060;9.150;2023-03-01T15:46:02;16.88;;;8.70;;
71490;SDS011;59307;50.060;9.150;2023-03-01T15:48:27;16.17;;;9.23;;
71490;SDS011;59307;50.060;9.150;2023-03-01T15:50:54;16.80;;;8.97;;
71490;SDS011;59307;50.060;9.150;2023-03-01T15:53:19;16.08;;;8.52;;
71490;SDS011;59307;50.060;9.150;2023-03-01T15:55:44;13.23;;;6.33;;
71490;SDS011;59307;50.060;9.150;2023-03-01T15:58:15;15.48;;;8.60;;
71490;SDS011;59307;50.060;9.150;2023-03-01T16:00:42;16.80;;;8.37;;
71490;SDS011;59307;50.060;9.150;2023-03-01T16:03:08;15.65;;;8.43;;
71490;SDS011;59307;50.060;9.150;2023-03-01T16:05:35;18.40;;;8.60;;
71490;SDS011;59307;50.060;9.150;2023-03-01T16:08:01;17.90;;;9.03;;
71490;SDS011;59307;50.060;9.150;2023-03-01T16:10:26;19.70;;;9.47;;
71490;SDS011;59307;50.060;9.150;2023-03-01T16:12:52;17.85;;;7.22;;
71490;SDS011;59307;50.060;9.150;2023-03-01T16:17:43;19.30;;;9.50;;
71490;SDS011;59307;50.060;9.150;2023-03-01T16:20:08;17.93;;;9.77;;
71490;SDS011;59307;50.060;9.150;2023-03-01T16:22:33;20.00;;;9.90;;
71490;SDS011;59307;50.060;9.150;2023-03-01T16:24:59;18.77;;;9.47;;
71490;SDS011;59307;50.060;9.150;2023-03-01T16:27:24;18.07;;;9.87;;
71490;SDS011;59307;50.060;9.150;2023-03-01T16:29:49;17.30;;;9.43;;
71490;SDS011;59307;50.060;9.150;2023-03-01T16:32:14;20.50;;;9.83;;
71490;SDS011;59307;50.060;9.150;2023-03-01T16:34:39;18.20;;;9.57;;
71490;SDS011;59307;50.060;9.150;2023-03-01T16:37:05;20.07;;;10.00;;
71490;SDS011;59307;50.060;9.150;2023-03-01T16:39:30;20.53;;;11.13;;
71490;SDS011;59307;50.060;9.150;2023-03-01T16:41:55;21.33;;;11.33;;
71490;SDS011;59307;50.060;9.150;2023-03-01T16:44:20;21.80;;;11.47;;
71490;SDS011;59307;50.060;9.150;2023-03-01T16:46:45;22.17;;;11.03;;